Time;durP1;ratioP1;P1;durP2;ratioP2;P2;SDS_P1;SDS_P2;PMS_P1;PMS_P2;Temp;Humidity;BMP_temperature;BMP_pressure;BME280_temperature;BME280_humidity;BME280_pressure;Samples;Min_cycle;Max_cycle;Signal;HPM_P1;HPM_P2
2022/04/11 00:00:09;;;;;;;;;;;9.50;99.90;;;;;;5014626;28;20373;-77
2022/04/11 00:02:34;;;;;;;;;;;9.50;99.90;;;;;;5014896;28;20392;-77
2022/04/11 00:05:00;;;;;;;;;;;9.40;99.90;;;;;;5014737;28;19910;-77
2022/04/11 00:07:26;;;;;;;;;;;9.40;99.90;;;;;;5014617;28;20324;-77
2022/04/11 00:09:51;;;;;;;;;;;9.40;99.90;;;;;;5014564;28;19909;-77
2022/04/11 00:12:17;;;;;;;;;;;9.30;99.90;;;;;;5014562;28;20374;-77
2022/04/11 00:14:42;;;;;;;;;;;9.30;99.90;;;;;;5014182;28;20007;-77
2022/04/11 00:17:08;;;;;;;;;;;9.40;99.90;;;;;;4996912;28;20400;-78
2022/04/11 00:19:33;;;;;;;;;;;9.30;99.90;;;;;;5014428;28;19910;-78
2022/04/11 00:21:59;;;;;;;;;;;9.20;99.90;;;;;;5014427;28;20404;-78
2022/04/11 00:24:25;;;;;;;;;;;9.20;99.90;;;;;;5014771;28;19963;-77
2022/04/11 00:26:50;;;;;;;;;;;9.20;99.90;;;;;;5014612;28;20000;-77
2022/04/11 00:29:16;;;;;;;;;;;9.20;99.90;;;;;;4996653;28;20370;-76
2022/04/11 00:31:41;;;;;;;;;;;9.20;99.90;;;;;;5014302;28;19910;-78
2022/04/11 00:34:07;;;;;;;;;;;9.30;99.90;;;;;;5014277;28;19909;-77
2022/04/11 00:36:33;;;;;;;;;;;9.30;99.90;;;;;;4996564;28;20404;-77
2022/04/11 00:38:58;;;;;;;;;;;9.30;99.90;;;;;;5014153;28;19941;-77
2022/04/11 00:41:24;;;;;;;;;;;9.30;99.90;;;;;;4996509;28;19936;-78
2022/04/11 00:43:49;;;;;;;;;;;9.40;99.90;;;;;;4996513;28;19952;-78
2022/04/11 00:46:15;;;;;;;;;;;9.30;99.90;;;;;;4996348;28;20366;-77
2022/04/11 00:48:41;;;;;;;;;;;9.40;99.90;;;;;;5014060;28;20370;-77
2022/04/11 00:51:26;;;;;;;;;;;9.40;99.90;;;;;;5014027;28;19917;-78
2022/04/11 00:53:54;;;;;;;;;;;9.30;99.90;;;;;;5013763;28;19916;-77
2022/04/11 00:56:20;;;;;;;;;;;9.40;99.90;;;;;;4996354;28;19917;-78
2022/04/11 00:58:46;;;;;;;;;;;9.30;99.90;;;;;;4996303;28;19910;-77
2022/04/11 01:01:13;;;;;;;;;;;9.30;99.90;;;;;;4996322;28;19913;-78
2022/04/11 01:03:39;;;;;;;;;;;9.30;99.90;;;;;;5013868;28;19920;-77
2022/04/11 01:06:07;;;;;;;;;;;9.30;99.90;;;;;;5013777;28;19913;-77
2022/04/11 01:08:33;;;;;;;;;;;9.30;99.90;;;;;;4996205;28;19917;-78
2022/04/11 01:11:00;;;;;;;;;;;9.30;99.90;;;;;;4997706;28;20395;-78
2022/04/11 01:13:25;;;;;;;;;;;9.20;99.90;;;;;;5017707;28;20386;-77
2022/04/11 01:15:57;;;;;;;;;;;9.20;99.90;;;;;;5000240;28;19910;-77
2022/04/11 01:18:23;;;;;;;;;;;9.10;99.90;;;;;;5017958;28;19910;-78
2022/04/11 01:20:49;;;;;;;;;;;9.20;99.90;;;;;;5017758;28;19910;-77
2022/04/11 01:23:14;;;;;;;;;;;9.20;99.90;;;;;;5017773;28;19910;-77
2022/04/11 01:25:40;;;;;;;;;;;9.20;99.90;;;;;;5017580;28;19980;-78
2022/04/11 01:28:06;;;;;;;;;;;9.10;99.90;;;;;;5017587;28;19916;-78
2022/04/11 01:30:32;;;;;;;;;;;9.10;99.90;;;;;;5017749;28;20396;-78
2022/04/11 01:32:57;;;;;;;;;;;9.10;99.90;;;;;;5000021;28;19909;-78
2022/04/11 01:35:27;;;;;;;;;;;9.00;99.90;;;;;;5017641;28;19971;-77
2022/04/11 01:37:53;;;;;;;;;;;9.00;99.90;;;;;;4999824;28;19911;-77
2022/04/11 01:40:19;;;;;;;;;;;9.00;99.90;;;;;;4999802;28;19909;-78
2022/04/11 01:42:45;;;;;;;;;;;9.00;99.90;;;;;;5017615;28;20044;-78
2022/04/11 01:45:11;;;;;;;;;;;9.00;99.90;;;;;;5017305;28;19909;-78
2022/04/11 01:47:38;;;;;;;;;;;8.90;99.90;;;;;;4999611;28;19914;-78
2022/04/11 01:50:04;;;;;;;;;;;8.90;99.90;;;;;;4999658;28;19909;-77
2022/04/11 01:52:29;;;;;;;;;;;8.90;99.90;;;;;;4999531;28;19920;-78
2022/04/11 01:54:55;;;;;;;;;;;8.90;99.90;;;;;;5017246;28;19916;-78
2022/04/11 01:57:21;;;;;;;;;;;8.80;99.90;;;;;;5017079;28;19975;-78
2022/04/11 01:59:46;;;;;;;;;;;8.80;99.90;;;;;;4999408;28;20317;-77
2022/04/11 02:02:12;;;;;;;;;;;8.80;99.90;;;;;;5017069;28;19933;-78
2022/04/11 02:04:37;;;;;;;;;;;8.70;99.90;;;;;;5017062;28;19910;-77
2022/04/11 02:07:03;;;;;;;;;;;8.80;99.90;;;;;;5016846;28;19914;-78
2022/04/11 02:09:28;;;;;;;;;;;8.70;99.90;;;;;;5016747;28;20330;-78
2022/04/11 02:11:54;;;;;;;;;;;8.70;99.90;;;;;;5016963;28;20370;-78
2022/04/11 02:14:19;;;;;;;;;;;8.60;99.90;;;;;;5016593;28;19992;-78
2022/04/11 02:16:45;;;;;;;;;;;8.60;99.90;;;;;;5016732;28;19952;-77
2022/04/11 02:19:11;;;;;;;;;;;8.60;99.90;;;;;;5016693;28;19917;-78
2022/04/11 02:21:36;;;;;;;;;;;8.60;99.90;;;;;;5016317;28;20386;-77
2022/04/11 02:24:02;;;;;;;;;;;8.50;99.90;;;;;;5016735;28;19909;-78
2022/04/11 02:26:27;;;;;;;;;;;8.50;99.90;;;;;;5016597;28;19990;-77
2022/04/11 02:28:53;;;;;;;;;;;8.50;99.90;;;;;;5016553;28;19910;-77
2022/04/11 02:31:19;;;;;;;;;;;8.50;99.90;;;;;;5016906;28;19996;-77
2022/04/11 02:33:44;;;;;;;;;;;8.40;99.90;;;;;;5016435;28;19956;-77
2022/04/11 02:36:10;;;;;;;;;;;8.40;99.90;;;;;;5016538;28;19910;-78
2022/04/11 02:38:35;;;;;;;;;;;8.40;99.90;;;;;;4998669;28;19952;-77
2022/04/11 02:41:01;;;;;;;;;;;8.30;99.90;;;;;;5016264;28;19937;-78
2022/04/11 02:43:27;;;;;;;;;;;8.30;99.90;;;;;;5016224;28;19910;-77
2022/04/11 02:45:52;;;;;;;;;;;8.30;99.90;;;;;;5016317;28;19910;-78
2022/04/11 02:48:18;;;;;;;;;;;8.30;99.90;;;;;;4998519;28;19956;-78
2022/04/11 02:50:43;;;;;;;;;;;8.30;99.90;;;;;;5016265;28;20286;-77
2022/04/11 02:53:09;;;;;;;;;;;8.20;99.90;;;;;;5016107;28;20020;-77
2022/04/11 02:55:34;;;;;;;;;;;8.20;99.90;;;;;;5016000;28;19910;-78
2022/04/11 02:58:00;;;;;;;;;;;8.20;99.90;;;;;;4998310;28;19957;-77
2022/04/11 03:00:26;;;;;;;;;;;8.20;99.90;;;;;;5015906;28;19910;-77
2022/04/11 03:02:52;;;;;;;;;;;8.10;99.90;;;;;;4998228;28;20357;-78
2022/04/11 03:05:17;;;;;;;;;;;8.10;99.90;;;;;;5015939;28;19909;-77
2022/04/11 03:07:43;;;;;;;;;;;8.10;99.90;;;;;;5015990;28;19917;-77
2022/04/11 03:10:09;;;;;;;;;;;8.00;99.90;;;;;;5016011;28;19998;-78
2022/04/11 03:12:34;;;;;;;;;;;8.00;99.90;;;;;;5015942;28;19910;-77
2022/04/11 03:15:00;;;;;;;;;;;8.00;99.90;;;;;;5015297;28;19921;-78
2022/04/11 03:17:25;;;;;;;;;;;8.00;99.90;;;;;;5015501;28;20285;-77
2022/04/11 03:19:51;;;;;;;;;;;7.90;99.90;;;;;;4997945;28;19916;-77
2022/04/11 03:22:17;;;;;;;;;;;8.00;99.90;;;;;;5015529;28;19909;-77
2022/04/11 03:24:42;;;;;;;;;;;8.00;99.90;;;;;;5015555;28;20320;-77
2022/04/11 03:27:08;;;;;;;;;;;8.00;99.90;;;;;;5015526;28;19913;-77
2022/04/11 03:29:33;;;;;;;;;;;8.00;99.90;;;;;;4997789;28;19910;-77
2022/04/11 03:31:59;;;;;;;;;;;8.00;99.90;;;;;;5015299;28;19913;-77
2022/04/11 03:34:24;;;;;;;;;;;8.00;99.90;;;;;;5014521;28;19910;-78
2022/04/11 03:36:51;;;;;;;;;;;8.10;99.90;;;;;;5015446;28;19914;-77
2022/04/11 03:39:17;;;;;;;;;;;8.00;99.90;;;;;;5015266;28;19910;-78
2022/04/11 03:41:43;;;;;;;;;;;8.00;99.90;;;;;;5015101;28;19933;-78
2022/04/11 03:44:10;;;;;;;;;;;8.00;99.90;;;;;;5015335;28;20001;-77
2022/04/11 03:46:36;;;;;;;;;;;8.00;99.90;;;;;;5015227;28;19909;-78
2022/04/11 03:49:01;;;;;;;;;;;8.00;99.90;;;;;;4997401;28;19909;-78
2022/04/11 03:51:27;;;;;;;;;;;8.00;99.90;;;;;;5014966;28;20396;-77
2022/04/11 03:53:53;;;;;;;;;;;7.90;99.90;;;;;;5014933;28;19909;-77
2022/04/11 03:56:18;;;;;;;;;;;7.90;99.90;;;;;;5014804;28;19913;-77
2022/04/11 03:58:47;;;;;;;;;;;7.90;99.90;;;;;;4997291;28;19910;-78
2022/04/11 04:01:13;;;;;;;;;;;8.00;99.90;;;;;;5014839;28;20334;-77
2022/04/11 04:03:40;;;;;;;;;;;7.90;99.90;;;;;;4997137;28;19952;-78
2022/04/11 04:06:05;;;;;;;;;;;7.90;99.90;;;;;;5014737;28;19910;-77
2022/04/11 04:08:31;;;;;;;;;;;7.90;99.90;;;;;;5014920;28;19916;-77
2022/04/11 04:10:57;;;;;;;;;;;7.90;99.90;;;;;;5014916;28;19911;-78
2022/04/11 04:13:22;;;;;;;;;;;7.90;99.90;;;;;;4996792;28;19923;-78
2022/04/11 04:15:48;;;;;;;;;;;7.90;99.90;;;;;;5014593;28;20369;-78
2022/04/11 04:18:13;;;;;;;;;;;7.90;99.90;;;;;;5014540;28;19959;-78
2022/04/11 04:20:39;;;;;;;;;;;7.90;99.90;;;;;;5014484;28;19933;-78
2022/04/11 04:23:05;;;;;;;;;;;7.90;99.90;;;;;;5014552;28;19916;-78
2022/04/11 04:25:34;;;;;;;;;;;7.80;99.90;;;;;;5014394;28;19909;-77
2022/04/11 04:28:00;;;;;;;;;;;7.80;99.90;;;;;;4996524;28;19944;-77
2022/04/11 04:30:26;;;;;;;;;;;7.80;99.90;;;;;;5013033;28;20316;-77
2022/04/11 04:32:52;;;;;;;;;;;7.80;99.90;;;;;;5014598;28;19916;-78
2022/04/11 04:35:17;;;;;;;;;;;7.80;99.90;;;;;;5014265;28;19910;-77
2022/04/11 04:37:43;;;;;;;;;;;7.70;99.90;;;;;;5014236;28;19964;-77
2022/04/11 04:40:09;;;;;;;;;;;7.80;99.90;;;;;;5014198;28;19909;-77
2022/04/11 04:42:35;;;;;;;;;;;7.70;99.90;;;;;;5014330;28;19917;-77
2022/04/11 04:45:00;;;;;;;;;;;7.70;99.90;;;;;;5014370;28;19909;-77
2022/04/11 04:47:26;;;;;;;;;;;7.70;99.90;;;;;;5014289;28;19910;-77
2022/04/11 04:49:52;;;;;;;;;;;7.80;99.90;;;;;;5014153;28;19916;-78
2022/04/11 04:52:17;;;;;;;;;;;7.70;99.90;;;;;;5014207;28;20288;-78
2022/04/11 04:54:43;;;;;;;;;;;7.70;99.90;;;;;;5014034;28;19957;-78
2022/04/11 04:57:08;;;;;;;;;;;7.70;99.90;;;;;;5013898;28;20370;-78
2022/04/11 04:59:34;;;;;;;;;;;7.60;99.90;;;;;;5014032;28;19909;-78
2022/04/11 05:02:00;;;;;;;;;;;7.60;99.90;;;;;;4996354;28;20000;-77
2022/04/11 05:04:25;;;;;;;;;;;7.60;99.90;;;;;;5013858;28;20358;-78
2022/04/11 05:06:51;;;;;;;;;;;7.70;99.90;;;;;;5013874;28;19909;-77
2022/04/11 05:09:16;;;;;;;;;;;7.60;99.90;;;;;;4996269;28;19963;-77
2022/04/11 05:11:42;;;;;;;;;;;7.50;99.90;;;;;;5013747;28;19909;-77
2022/04/11 05:14:07;;;;;;;;;;;7.40;99.90;;;;;;4996001;28;19921;-77
2022/04/11 05:16:33;;;;;;;;;;;7.50;99.90;;;;;;5014272;28;19914;-78
2022/04/11 05:18:59;;;;;;;;;;;7.40;99.90;;;;;;5013763;28;19910;-78
2022/04/11 05:21:24;;;;;;;;;;;7.40;99.90;;;;;;5013723;28;19996;-78
2022/04/11 05:23:50;;;;;;;;;;;7.40;99.90;;;;;;4996163;28;19980;-78
2022/04/11 05:26:16;;;;;;;;;;;7.40;99.90;;;;;;5013731;28;19909;-77
2022/04/11 05:28:41;;;;;;;;;;;7.40;99.90;;;;;;5013659;28;19910;-77
2022/04/11 05:31:07;;;;;;;;;;;7.40;99.90;;;;;;5013663;28;19909;-77
2022/04/11 05:33:33;;;;;;;;;;;7.50;99.90;;;;;;5013687;28;19909;-78
2022/04/11 05:35:58;;;;;;;;;;;7.50;99.90;;;;;;5013497;28;19917;-78
2022/04/11 05:38:24;;;;;;;;;;;7.50;99.90;;;;;;4995988;28;20393;-77
2022/04/11 05:40:49;;;;;;;;;;;7.50;99.90;;;;;;5013534;28;19913;-78
2022/04/11 05:43:15;;;;;;;;;;;7.60;99.90;;;;;;5013503;28;19909;-78
2022/04/11 05:45:41;;;;;;;;;;;7.60;99.90;;;;;;4995903;28;20400;-78
2022/04/11 05:48:07;;;;;;;;;;;7.70;99.90;;;;;;4995967;28;19910;-78
2022/04/11 05:50:33;;;;;;;;;;;7.60;99.90;;;;;;5013912;28;20262;-77
2022/04/11 05:52:59;;;;;;;;;;;7.70;99.90;;;;;;5013584;28;19971;-77
2022/04/11 05:55:24;;;;;;;;;;;7.70;99.90;;;;;;4995818;28;20008;-78
2022/04/11 05:57:50;;;;;;;;;;;7.80;99.90;;;;;;5016042;28;20346;-78
2022/04/11 06:00:16;;;;;;;;;;;7.80;99.90;;;;;;5017018;28;20270;-78
2022/04/11 06:02:42;;;;;;;;;;;7.80;99.90;;;;;;5017014;28;20043;-78
2022/04/11 06:05:09;;;;;;;;;;;7.90;99.90;;;;;;5017022;28;19960;-77
2022/04/11 06:07:35;;;;;;;;;;;7.90;99.90;;;;;;5017023;28;19910;-77
2022/04/11 06:10:00;;;;;;;;;;;7.90;99.90;;;;;;5016846;28;19932;-78
2022/04/11 06:12:26;;;;;;;;;;;8.00;99.90;;;;;;4999210;28;20018;-78
2022/04/11 06:14:55;;;;;;;;;;;8.10;99.90;;;;;;5016308;28;19926;-78
2022/04/11 06:17:23;;;;;;;;;;;8.20;99.90;;;;;;5016662;28;19918;-78
2022/04/11 06:19:52;;;;;;;;;;;8.30;99.90;;;;;;5016705;28;19945;-77
2022/04/11 06:22:18;;;;;;;;;;;8.40;99.90;;;;;;4999035;28;20369;-78
2022/04/11 06:24:44;;;;;;;;;;;8.60;99.90;;;;;;5016575;28;19909;-78
2022/04/11 06:27:10;;;;;;;;;;;8.70;99.90;;;;;;4998935;28;19944;-78
2022/04/11 06:29:35;;;;;;;;;;;8.80;99.90;;;;;;5016505;28;20381;-78
2022/04/11 06:32:04;;;;;;;;;;;9.30;99.90;;;;;;4998845;28;20332;-78
2022/04/11 06:34:30;;;;;;;;;;;9.80;99.90;;;;;;4998769;28;19920;-78
2022/04/11 06:36:56;;;;;;;;;;;10.10;99.90;;;;;;5016282;28;20320;-78
2022/04/11 06:39:22;;;;;;;;;;;10.30;99.90;;;;;;5016243;28;20001;-78
2022/04/11 06:41:47;;;;;;;;;;;10.20;99.90;;;;;;5016725;28;19909;-78
2022/04/11 06:44:13;;;;;;;;;;;10.00;99.90;;;;;;5016561;28;19917;-78
2022/04/11 06:46:38;;;;;;;;;;;9.80;99.90;;;;;;5016229;28;20004;-78
2022/04/11 06:49:04;;;;;;;;;;;10.00;99.90;;;;;;5016150;28;19917;-78
2022/04/11 06:51:30;;;;;;;;;;;10.40;99.90;;;;;;5016076;28;20386;-78
2022/04/11 06:53:55;;;;;;;;;;;10.90;99.90;;;;;;5016037;28;20251;-78
2022/04/11 06:56:21;;;;;;;;;;;11.20;99.90;;;;;;5015949;28;20012;-78
2022/04/11 06:58:46;;;;;;;;;;;11.50;99.90;;;;;;5016067;28;19932;-78
2022/04/11 07:01:12;;;;;;;;;;;11.40;99.90;;;;;;5016019;28;19956;-78
2022/04/11 07:03:37;;;;;;;;;;;11.10;99.90;;;;;;5015941;28;19968;-77
2022/04/11 07:06:03;;;;;;;;;;;11.50;99.90;;;;;;4998207;28;19909;-78
2022/04/11 07:08:28;;;;;;;;;;;11.70;99.90;;;;;;4996977;28;19924;-78
2022/04/11 07:10:54;;;;;;;;;;;11.70;99.90;;;;;;5015868;28;19910;-79
2022/04/11 07:13:20;;;;;;;;;;;12.10;99.90;;;;;;5015659;28;20374;-78
2022/04/11 07:15:46;;;;;;;;;;;12.30;99.90;;;;;;5015792;28;19910;-79
2022/04/11 07:18:11;;;;;;;;;;;12.10;99.90;;;;;;5015664;28;19968;-79
2022/04/11 07:20:38;;;;;;;;;;;12.10;99.90;;;;;;5015643;28;19945;-78
2022/04/11 07:23:04;;;;;;;;;;;12.20;99.90;;;;;;5015466;28;20389;-78
2022/04/11 07:25:29;;;;;;;;;;;12.50;99.90;;;;;;5015415;28;19914;-79
2022/04/11 07:27:56;;;;;;;;;;;12.10;99.90;;;;;;5015416;28;19909;-78
2022/04/11 07:30:21;;;;;;;;;;;11.90;99.90;;;;;;4997655;28;20297;-78
2022/04/11 07:32:47;;;;;;;;;;;12.10;99.90;;;;;;5015452;28;19910;-78
2022/04/11 07:35:13;;;;;;;;;;;12.80;99.90;;;;;;5015685;28;20000;-78
2022/04/11 07:37:38;;;;;;;;;;;13.00;99.90;;;;;;5015113;28;19913;-78
2022/04/11 07:40:04;;;;;;;;;;;13.40;99.90;;;;;;5015237;28;19917;-79
2022/04/11 07:42:30;;;;;;;;;;;13.40;99.90;;;;;;5015166;28;19917;-78
2022/04/11 07:44:56;;;;;;;;;;;13.70;99.90;;;;;;5015149;28;19956;-78
2022/04/11 07:47:22;;;;;;;;;;;14.10;99.90;;;;;;5015047;28;19910;-79
2022/04/11 07:49:47;;;;;;;;;;;14.30;99.90;;;;;;5015024;28;19972;-80
2022/04/11 07:52:13;;;;;;;;;;;14.30;99.90;;;;;;5015190;28;19936;-79
2022/04/11 07:54:38;;;;;;;;;;;13.10;99.90;;;;;;5014943;28;19909;-80
2022/04/11 07:57:04;;;;;;;;;;;14.00;99.90;;;;;;4997232;28;19913;-80
2022/04/11 07:59:30;;;;;;;;;;;15.20;98.50;;;;;;4997234;28;19913;-80
2022/04/11 08:01:55;;;;;;;;;;;15.40;96.40;;;;;;5015104;28;19910;-80
2022/04/11 08:04:21;;;;;;;;;;;15.80;94.70;;;;;;5014808;28;20000;-80
2022/04/11 08:06:46;;;;;;;;;;;16.10;93.50;;;;;;5015247;28;20356;-81
2022/04/11 08:09:12;;;;;;;;;;;16.70;90.50;;;;;;4996978;28;20020;-80
2022/04/11 08:11:38;;;;;;;;;;;17.30;90.40;;;;;;5014572;28;19916;-81
2022/04/11 08:14:03;;;;;;;;;;;17.00;88.60;;;;;;5014384;28;19929;-81
2022/04/11 08:16:29;;;;;;;;;;;17.40;87.90;;;;;;5014477;28;19959;-80
2022/04/11 08:18:54;;;;;;;;;;;17.40;88.60;;;;;;5014379;28;19959;-80
2022/04/11 08:21:20;;;;;;;;;;;18.30;99.90;;;;;;5014337;28;19920;-81
2022/04/11 08:23:45;;;;;;;;;;;18.90;96.40;;;;;;5014794;28;19909;-80
2022/04/11 08:26:11;;;;;;;;;;;17.90;95.00;;;;;;5014686;28;19917;-80
2022/04/11 08:28:37;;;;;;;;;;;18.30;93.70;;;;;;4996767;28;20339;-80
2022/04/11 08:31:02;;;;;;;;;;;18.50;94.10;;;;;;5014271;28;19910;-80
2022/04/11 08:33:28;;;;;;;;;;;19.80;92.10;;;;;;5014272;28;19953;-81
2022/04/11 08:35:53;;;;;;;;;;;19.70;90.10;;;;;;5014327;28;20366;-80
2022/04/11 08:38:19;;;;;;;;;;;20.60;88.10;;;;;;5014222;28;19972;-80
2022/04/11 08:40:45;;;;;;;;;;;19.50;86.50;;;;;;5014167;28;19910;-80
2022/04/11 08:43:12;;;;;;;;;;;19.00;75.60;;;;;;5014105;28;19910;-79
2022/04/11 08:45:38;;;;;;;;;;;18.30;77.40;;;;;;5014569;28;20354;-81
2022/04/11 08:48:04;;;;;;;;;;;19.40;79.90;;;;;;4996435;28;19956;-80
2022/04/11 08:50:29;;;;;;;;;;;19.50;73.00;;;;;;5014086;28;19913;-80
2022/04/11 08:52:56;;;;;;;;;;;20.20;74.20;;;;;;5014022;28;20381;-80
2022/04/11 08:55:22;;;;;;;;;;;20.20;71.70;;;;;;4996338;28;20349;-80
2022/04/11 08:57:48;;;;;;;;;;;20.60;67.80;;;;;;4996406;28;19920;-80
2022/04/11 09:00:15;;;;;;;;;;;21.60;66.00;;;;;;4996339;28;19910;-80
2022/04/11 09:02:42;;;;;;;;;;;21.20;63.40;;;;;;5013941;28;19916;-81
2022/04/11 09:05:08;;;;;;;;;;;22.20;62.80;;;;;;5013910;28;19916;-81
2022/04/11 09:07:44;;;;;;;;;;;22.40;58.50;;;;;;5013799;28;20377;-80
2022/04/11 09:10:10;;;;;;;;;;;22.10;59.80;;;;;;5013897;28;19913;-80
2022/04/11 09:12:44;;;;;;;;;;;21.40;59.10;;;;;;4996160;28;20301;-80
2022/04/11 09:15:10;;;;;;;;;;;20.70;63.40;;;;;;5013393;28;19932;-80
2022/04/11 09:17:39;;;;;;;;;;;21.10;61.70;;;;;;4996137;28;19913;-80
2022/04/11 09:20:07;;;;;;;;;;;21.20;61.50;;;;;;4996145;28;19947;-81
2022/04/11 09:22:33;;;;;;;;;;;23.10;59.90;;;;;;5013722;28;19910;-81
2022/04/11 09:25:09;;;;;;;;;;;23.70;56.30;;;;;;4996104;28;19916;-80
2022/04/11 09:27:34;;;;;;;;;;;23.70;56.00;;;;;;4996009;28;19920;-81
2022/04/11 09:30:00;;;;;;;;;;;24.80;57.30;;;;;;4996027;28;19914;-82
2022/04/11 09:32:26;;;;;;;;;;;25.40;53.40;;;;;;4998283;28;19909;-81
2022/04/11 09:34:53;;;;;;;;;;;25.90;52.00;;;;;;5017740;28;19909;-81
2022/04/11 09:37:18;;;;;;;;;;;26.60;52.00;;;;;;5017506;28;19916;-81
2022/04/11 09:39:53;;;;;;;;;;;27.10;49.10;;;;;;5017436;28;19992;-81
2022/04/11 09:42:28;;;;;;;;;;;27.00;49.90;;;;;;5017589;28;19941;-81
2022/04/11 09:44:58;;;;;;;;;;;27.70;48.90;;;;;;4999500;28;19913;-81
2022/04/11 09:47:24;;;;;;;;;;;28.50;46.90;;;;;;4999606;28;19914;-81
2022/04/11 09:49:49;;;;;;;;;;;28.60;46.60;;;;;;4999664;28;19992;-81
2022/04/11 09:52:15;;;;;;;;;;;30.70;46.00;;;;;;5017636;28;19947;-81
2022/04/11 09:54:45;;;;;;;;;;;30.20;43.50;;;;;;4999596;28;19948;-82
2022/04/11 09:57:11;;;;;;;;;;;30.00;44.50;;;;;;4999507;28;20485;-82
2022/04/11 09:59:39;;;;;;;;;;;28.50;43.30;;;;;;5017096;28;19988;-82
2022/04/11 10:02:05;;;;;;;;;;;30.00;44.90;;;;;;5017257;28;19963;-81
2022/04/11 10:04:31;;;;;;;;;;;30.80;43.10;;;;;;5016950;28;19917;-80
2022/04/11 10:06:56;;;;;;;;;;;27.10;46.60;;;;;;5016836;28;19913;-82
2022/04/11 10:09:23;;;;;;;;;;;28.30;44.60;;;;;;5016883;28;19914;-81
2022/04/11 10:11:50;;;;;;;;;;;28.30;44.50;;;;;;5017046;28;20393;-81
2022/04/11 10:14:26;;;;;;;;;;;27.40;47.40;;;;;;5016757;28;19999;-82
2022/04/11 10:16:52;;;;;;;;;;;29.70;45.80;;;;;;5016880;28;19992;-82
2022/04/11 10:19:22;;;;;;;;;;;30.10;45.90;;;;;;5016730;28;20263;-81
2022/04/11 10:21:49;;;;;;;;;;;29.60;44.30;;;;;;5016686;28;19909;-82
2022/04/11 10:24:22;;;;;;;;;;;30.70;44.40;;;;;;5016764;28;20005;-81
2022/04/11 10:26:49;;;;;;;;;;;29.40;44.90;;;;;;5016663;28;20398;-81
2022/04/11 10:29:32;;;;;;;;;;;30.50;44.00;;;;;;4998909;28;20381;-81
2022/04/11 10:32:09;;;;;;;;;;;29.90;44.40;;;;;;5016674;28;19956;-81
2022/04/11 10:34:54;;;;;;;;;;;28.80;45.80;;;;;;4998825;28;19997;-81
2022/04/11 10:37:21;;;;;;;;;;;29.40;44.50;;;;;;4998755;28;19910;-82
2022/04/11 10:39:47;;;;;;;;;;;30.10;44.10;;;;;;5016557;28;19909;-81
2022/04/11 10:42:13;;;;;;;;;;;27.50;45.30;;;;;;4998500;28;20353;-81
2022/04/11 10:44:46;;;;;;;;;;;27.90;46.00;;;;;;5016301;28;19941;-81
2022/04/11 10:47:12;;;;;;;;;;;28.20;47.20;;;;;;5016095;28;20007;-80
2022/04/11 10:49:59;;;;;;;;;;;25.90;50.70;;;;;;4998580;28;19945;-82
2022/04/11 10:52:34;;;;;;;;;;;28.60;48.50;;;;;;4998255;28;19913;-81
2022/04/11 10:55:05;;;;;;;;;;;29.20;45.80;;;;;;5016365;28;19913;-81
2022/04/11 10:57:38;;;;;;;;;;;30.40;46.10;;;;;;4998418;28;19909;-81
2022/04/11 11:00:10;;;;;;;;;;;28.90;46.60;;;;;;5015995;28;19916;-81
2022/04/11 11:02:52;;;;;;;;;;;26.80;48.60;;;;;;5015952;28;19981;-80
2022/04/11 11:05:26;;;;;;;;;;;26.70;52.10;;;;;;5015964;28;19964;-80
2022/04/11 11:08:07;;;;;;;;;;;29.00;49.20;;;;;;5015777;28;20373;-81
2022/04/11 11:10:41;;;;;;;;;;;27.80;47.90;;;;;;4998066;28;20355;-80
2022/04/11 11:13:29;;;;;;;;;;;25.00;52.10;;;;;;5015655;28;19909;-81
2022/04/11 11:15:55;;;;;;;;;;;27.80;51.60;;;;;;4997807;28;20007;-81
2022/04/11 11:18:21;;;;;;;;;;;28.00;51.40;;;;;;5016128;28;19945;-80
2022/04/11 11:20:50;;;;;;;;;;;27.10;51.80;;;;;;5016007;28;19968;-81
2022/04/11 11:23:20;;;;;;;;;;;26.70;50.40;;;;;;4997975;28;19910;-81
2022/04/11 11:25:47;;;;;;;;;;;27.70;52.40;;;;;;4997918;28;19985;-81
2022/04/11 11:28:13;;;;;;;;;;;27.50;51.80;;;;;;5015364;28;20400;-80
2022/04/11 11:30:39;;;;;;;;;;;25.80;53.90;;;;;;5015424;28;19910;-80
2022/04/11 11:33:07;;;;;;;;;;;25.80;51.90;;;;;;5015622;28;19916;-80
2022/04/11 11:35:32;;;;;;;;;;;25.80;54.20;;;;;;5015322;28;19956;-80
2022/04/11 11:38:02;;;;;;;;;;;25.60;53.60;;;;;;5015227;28;19913;-80
2022/04/11 11:40:28;;;;;;;;;;;27.50;52.90;;;;;;4997611;28;19910;-80
2022/04/11 11:42:56;;;;;;;;;;;26.80;51.50;;;;;;4997543;28;20381;-80
2022/04/11 11:45:28;;;;;;;;;;;26.80;54.10;;;;;;5015345;28;19909;-81
2022/04/11 11:47:54;;;;;;;;;;;25.90;53.70;;;;;;5014999;28;20424;-81
2022/04/11 11:50:19;;;;;;;;;;;27.90;53.40;;;;;;5015027;28;19914;-80
2022/04/11 11:52:57;;;;;;;;;;;28.90;51.90;;;;;;5014982;28;19996;-81
2022/04/11 11:55:23;;;;;;;;;;;29.80;50.50;;;;;;4996734;28;19917;-81
2022/04/11 11:58:02;;;;;;;;;;;28.40;48.90;;;;;;4997283;28;19909;-81
2022/04/11 12:00:32;;;;;;;;;;;28.50;50.40;;;;;;4996925;28;20377;-80
2022/04/11 12:05:42;;;;;;;;;;;29.90;50.30;;;;;;5014874;28;19960;-81
2022/04/11 12:08:08;;;;;;;;;;;30.40;48.70;;;;;;5014595;28;20302;-80
2022/04/11 12:10:35;;;;;;;;;;;27.30;53.00;;;;;;5014615;28;19910;-80
2022/04/11 12:13:00;;;;;;;;;;;26.30;53.70;;;;;;4996708;28;19913;-81
2022/04/11 12:15:33;;;;;;;;;;;27.60;55.60;;;;;;5013955;28;19913;-80
2022/04/11 12:18:03;;;;;;;;;;;24.70;58.70;;;;;;4996142;28;19909;-80
2022/04/11 12:20:30;;;;;;;;;;;24.40;62.70;;;;;;5013727;28;19960;-79
2022/04/11 12:23:01;;;;;;;;;;;24.10;64.60;;;;;;4996077;28;20277;-80
2022/04/11 12:25:28;;;;;;;;;;;23.80;67.30;;;;;;4996026;28;20358;-79
2022/04/11 12:28:09;;;;;;;;;;;22.80;69.80;;;;;;5013538;28;19954;-79
2022/04/11 12:30:35;;;;;;;;;;;22.40;75.90;;;;;;5013516;28;19935;-80
2022/04/11 12:33:00;;;;;;;;;;;22.10;79.70;;;;;;5013544;28;19913;-79
2022/04/11 12:35:26;;;;;;;;;;;21.80;83.30;;;;;;4995831;28;20329;-80
2022/04/11 12:37:54;;;;;;;;;;;27.40;69.00;;;;;;5013803;28;19910;-81
2022/04/11 12:40:19;;;;;;;;;;;32.70;53.70;;;;;;5013445;28;19916;-81
2022/04/11 12:42:45;;;;;;;;;;;30.00;51.50;;;;;;5013454;28;19910;-80
2022/04/11 12:45:14;;;;;;;;;;;27.00;56.10;;;;;;5013470;28;19917;-81
2022/04/11 12:47:58;;;;;;;;;;;26.00;58.70;;;;;;5013318;28;20436;-80
2022/04/11 12:50:24;;;;;;;;;;;24.40;62.40;;;;;;5013541;28;19914;-79
2022/04/11 12:52:49;;;;;;;;;;;23.20;71.10;;;;;;5013307;28;20019;-79
2022/04/11 12:55:22;;;;;;;;;;;22.80;73.80;;;;;;5013302;28;19910;-80
2022/04/11 12:57:58;;;;;;;;;;;22.70;76.40;;;;;;5013296;28;19916;-80
2022/04/11 13:00:24;;;;;;;;;;;21.90;82.80;;;;;;5013425;28;19914;-79
2022/04/11 13:02:52;;;;;;;;;;;22.40;82.60;;;;;;5013440;28;19913;-80
2022/04/11 13:05:18;;;;;;;;;;;22.70;81.60;;;;;;5012964;28;19915;-80
2022/04/11 13:07:47;;;;;;;;;;;25.00;75.70;;;;;;4994446;28;20004;-80
2022/04/11 13:10:13;;;;;;;;;;;25.60;71.00;;;;;;5012941;28;19916;-80
2022/04/11 13:12:38;;;;;;;;;;;25.70;67.00;;;;;;5012998;28;19909;-80
2022/04/11 13:15:06;;;;;;;;;;;26.20;65.80;;;;;;4940564;28;2092252;-80
2022/04/11 13:20:17;;;;;;;;;;;25.10;68.60;;;;;;5013819;28;19916;-80
2022/04/11 13:22:42;;;;;;;;;;;26.60;64.30;;;;;;4996425;28;19941;-81
2022/04/11 13:25:08;;;;;;;;;;;29.30;57.10;;;;;;4996109;28;19962;-80
2022/04/11 13:27:33;;;;;;;;;;;24.70;63.70;;;;;;5013710;28;19917;-79
2022/04/11 13:29:59;;;;;;;;;;;24.20;70.80;;;;;;5013676;28;19972;-80
2022/04/11 13:32:25;;;;;;;;;;;23.60;73.00;;;;;;5013922;28;19945;-79
2022/04/11 13:34:50;;;;;;;;;;;23.20;76.80;;;;;;5013688;28;19977;-80
2022/04/11 13:37:17;;;;;;;;;;;22.80;79.80;;;;;;5013697;28;20388;-80
2022/04/11 13:39:43;;;;;;;;;;;22.50;82.80;;;;;;5013482;28;19909;-80
2022/04/11 13:42:08;;;;;;;;;;;23.00;81.60;;;;;;5013538;28;19975;-80
2022/04/11 13:44:34;;;;;;;;;;;27.10;67.90;;;;;;5013526;28;19909;-79
2022/04/11 13:46:59;;;;;;;;;;;25.70;69.00;;;;;;5013470;28;19925;-80
2022/04/11 13:49:25;;;;;;;;;;;30.40;58.60;;;;;;4995844;28;19910;-80
2022/04/11 13:51:51;;;;;;;;;;;33.80;55.20;;;;;;5013707;28;19910;-80
2022/04/11 13:54:17;;;;;;;;;;;30.70;52.00;;;;;;4995865;28;19964;-79
2022/04/11 13:56:42;;;;;;;;;;;26.60;59.30;;;;;;4995799;28;19996;-79
2022/04/11 13:59:12;;;;;;;;;;;25.40;62.10;;;;;;5013523;28;19924;-79
2022/04/11 14:01:38;;;;;;;;;;;26.50;64.60;;;;;;5013352;28;19913;-80
2022/04/11 14:04:04;;;;;;;;;;;28.20;59.90;;;;;;4995709;28;19947;-80
2022/04/11 14:06:30;;;;;;;;;;;29.30;58.30;;;;;;4995685;28;19953;-79
2022/04/11 14:08:55;;;;;;;;;;;27.70;58.30;;;;;;5013336;28;20024;-79
2022/04/11 14:11:21;;;;;;;;;;;29.10;57.10;;;;;;5013471;28;19910;-80
2022/04/11 14:13:47;;;;;;;;;;;28.50;56.80;;;;;;5013097;28;19926;-79
2022/04/11 14:16:12;;;;;;;;;;;26.80;58.60;;;;;;5013803;28;19914;-79
2022/04/11 14:18:38;;;;;;;;;;;27.50;58.70;;;;;;5015707;28;20437;-79
2022/04/11 14:21:03;;;;;;;;;;;28.10;57.20;;;;;;5016673;28;19952;-79
2022/04/11 14:23:30;;;;;;;;;;;27.30;59.00;;;;;;5016739;28;19910;-78
2022/04/11 14:25:56;;;;;;;;;;;27.10;57.70;;;;;;4999066;28;20036;-79